Kezdőlap
METAR-TAF:

METAR-TAF

Repülőterek :

Zsolna, Szlovákia

földrajzi szélesség: 49-14N, földrajzi hosszúság: 018-36-49E, magasság: 312 m

Jelenlegi meteorológiai megfigyelések

A jelentés 18 perccel ezelõtt készült, 00:00 UTC
Délkeleti szél 3 kt
Hőmérséklet 0°C
Páratartalom 80%
Légköri nyomás 1019 hPa
Látótávolság 10 km, vagy több
Szakadozott felhőzet 5900 lábon

METAR: LZZI 200000Z 14003KT 9999 BKN059 M00/M03 Q1019

Idő: 01:18 (00:18 UTC)

Előrejelzés

A jelentés 1 órával és 18 perccel ezelõtt készült, 23:00 UTC
Az előrejelzés 20-én 00 óra UTC és 20-én 09 óra UTC között érvényes
Északkeleti szél 4 kt
Látótávolság 10 km, vagy több
Szórványos felhőzet 4000 lábon
Szakadozott felhőzet 6000 lábon
20-én 01 óra UTC és 20-én 08 óra UTC között ideiglenes
Látótávolság: 4000 m
Szakadozott felhőzet 1000 lábon
Párásság

TAF: LZZI 192300Z 2000/2009 05004KT 9999 SCT040 BKN060 TEMPO 2001/2008 4000 BR BKN010

Meteorológiai megfigyelések és előrejelzések több, mint 4000 repülőtéren (METAR és TAF jelentéseket).

A térképen piros és sárga pontok jelzik az elérhető meteorológiai állomásokat.

Mozgassa az egeret a pont fölött, hogy megjelenjen az állomás neve.

Azután kattintson az időjárási megfigyelések és előrejelzések megtekintéséhez.

A térkép megváltoztatása: kattintson a fekete keresztel jelölt zöld gombra ráközelítéshez, a vonallal jelölt zöld gombra távolításhoz, vagy a zöld nyilakra a szomszédos térképek eléréséhez.


METAR-TAF: